createdAt,value
2024-05-09T00:00:46.447Z,19.13
2024-05-09T00:03:14.308Z,19.31
2024-05-09T00:05:42.737Z,19.18
2024-05-09T00:08:11.298Z,18.80
2024-05-09T00:10:40.387Z,19.07
2024-05-09T00:13:09.977Z,18.88
2024-05-09T00:15:38.052Z,19.21
2024-05-09T00:18:07.509Z,19.02
2024-05-09T00:20:39.507Z,18.57
2024-05-09T00:23:15.830Z,18.43
2024-05-09T00:25:44.368Z,18.48
2024-05-09T00:28:12.913Z,18.73
2024-05-09T00:30:40.804Z,18.89
2024-05-09T00:33:10.393Z,18.97
2024-05-09T00:35:39.221Z,18.99
2024-05-09T00:38:07.082Z,18.95
2024-05-09T00:40:40.166Z,19.00
2024-05-09T00:43:11.213Z,19.08
2024-05-09T00:45:39.221Z,18.96
2024-05-09T00:48:09.331Z,18.69
2024-05-09T00:50:41.792Z,18.19
2024-05-09T00:53:15.111Z,17.36
2024-05-09T00:55:43.124Z,18.45
2024-05-09T00:58:14.096Z,18.85
2024-05-09T01:00:42.040Z,19.10
2024-05-09T01:03:12.555Z,19.20
2024-05-09T01:05:42.336Z,19.34
2024-05-09T01:08:10.984Z,19.15
2024-05-09T01:10:40.797Z,18.84
2024-05-09T01:13:10.382Z,19.26
2024-05-09T01:15:37.934Z,19.31
2024-05-09T01:18:09.855Z,19.46
2024-05-09T01:20:42.279Z,19.49
2024-05-09T01:23:14.510Z,19.58
2024-05-09T01:25:44.436Z,19.47
2024-05-09T01:28:12.108Z,19.43
2024-05-09T01:30:39.588Z,19.33
2024-05-09T01:33:09.630Z,19.36
2024-05-09T01:35:41.831Z,19.43
2024-05-09T01:38:14.286Z,19.23
2024-05-09T01:40:41.913Z,19.30
2024-05-09T01:43:10.966Z,19.12
2024-05-09T01:45:40.336Z,19.23
2024-05-09T01:48:09.266Z,19.18
2024-05-09T01:50:40.769Z,19.19
2024-05-09T01:53:12.176Z,18.10
2024-05-09T01:55:40.071Z,18.56
2024-05-09T01:58:08.804Z,19.15
2024-05-09T02:00:40.843Z,19.30
2024-05-09T02:03:14.898Z,19.21
2024-05-09T02:08:24.436Z,18.97
2024-05-09T02:10:52.194Z,19.01
2024-05-09T02:13:19.799Z,19.10
2024-05-09T02:15:47.313Z,19.13
2024-05-09T02:18:15.043Z,18.15
2024-05-09T02:20:43.436Z,19.09
2024-05-09T02:23:11.976Z,19.03
2024-05-09T02:25:40.184Z,18.37
2024-05-09T02:28:07.805Z,18.11
2024-05-09T02:30:39.886Z,18.35
2024-05-09T02:33:14.286Z,19.12
2024-05-09T02:35:44.136Z,18.53
2024-05-09T02:38:12.973Z,19.23
2024-05-09T02:40:41.193Z,18.16
2024-05-09T02:43:11.010Z,18.05
2024-05-09T02:45:40.051Z,17.58
2024-05-09T02:48:11.413Z,18.23
2024-05-09T02:50:44.393Z,18.90
2024-05-09T02:53:12.637Z,19.20
2024-05-09T02:55:40.769Z,19.11
2024-05-09T02:58:08.787Z,19.17
2024-05-09T03:00:40.301Z,19.34
2024-05-09T03:03:12.900Z,19.55
2024-05-09T03:05:43.370Z,19.70
2024-05-09T03:08:11.270Z,19.87
2024-05-09T03:10:39.575Z,19.97
2024-05-09T03:13:14.140Z,20.02
2024-05-09T03:15:43.149Z,19.48
2024-05-09T03:18:11.601Z,18.76
2024-05-09T03:20:40.172Z,18.22
2024-05-09T03:23:09.883Z,18.27
2024-05-09T03:25:38.960Z,18.47
2024-05-09T03:28:06.960Z,18.41
2024-05-09T03:30:41.011Z,18.48
2024-05-09T03:33:13.459Z,19.23
2024-05-09T03:35:42.043Z,18.96
2024-05-09T03:38:09.964Z,19.50
2024-05-09T03:40:37.914Z,19.24
2024-05-09T03:43:05.515Z,19.67
2024-05-09T03:45:33.076Z,19.51
2024-05-09T03:48:00.812Z,18.94
2024-05-09T03:50:33.849Z,19.41
2024-05-09T03:53:03.498Z,19.22
2024-05-09T03:55:31.321Z,19.10
2024-05-09T03:57:59.362Z,19.67
2024-05-09T04:00:35.170Z,19.70
2024-05-09T04:03:09.328Z,19.95
2024-05-09T04:05:41.020Z,19.29
2024-05-09T04:08:10.296Z,18.91
2024-05-09T04:10:38.190Z,18.42
2024-05-09T04:13:05.824Z,18.63
2024-05-09T04:15:33.537Z,18.73
2024-05-09T04:18:01.940Z,18.83
2024-05-09T04:20:37.658Z,18.40
2024-05-09T04:23:11.068Z,18.57
2024-05-09T04:25:38.888Z,18.65
2024-05-09T04:28:07.218Z,18.15
2024-05-09T04:30:38.926Z,18.77
2024-05-09T04:33:14.283Z,19.00
2024-05-09T04:35:43.728Z,18.83
2024-05-09T04:38:12.347Z,18.99
2024-05-09T04:40:39.940Z,18.98
2024-05-09T04:43:14.346Z,18.79
2024-05-09T04:45:42.447Z,19.30
2024-05-09T04:48:10.207Z,19.76
2024-05-09T04:50:39.452Z,19.36
2024-05-09T04:53:11.548Z,19.58
2024-05-09T04:55:40.807Z,19.71
2024-05-09T04:58:12.226Z,19.80
2024-05-09T05:00:41.049Z,19.13
2024-05-09T05:03:13.399Z,19.59
2024-05-09T05:05:44.970Z,18.82
2024-05-09T05:08:18.820Z,19.51
2024-05-09T05:10:48.220Z,19.44
2024-05-09T05:13:18.230Z,20.42
2024-05-09T05:15:47.353Z,20.06
2024-05-09T05:18:16.121Z,19.95
2024-05-09T05:20:44.716Z,19.94
2024-05-09T05:23:13.796Z,19.75
2024-05-09T05:25:45.075Z,20.15
2024-05-09T05:28:12.670Z,19.80
2024-05-09T05:30:41.496Z,19.81
2024-05-09T05:33:18.897Z,20.13
2024-05-09T05:35:47.038Z,21.08
2024-05-09T05:38:14.669Z,21.32
2024-05-09T05:40:42.245Z,20.69
2024-05-09T05:43:17.072Z,21.20
2024-05-09T05:45:44.852Z,21.02
2024-05-09T05:48:14.128Z,20.98
2024-05-09T05:50:41.908Z,20.53
2024-05-09T05:53:10.818Z,20.34
2024-05-09T05:55:41.056Z,20.37
2024-05-09T05:58:13.390Z,20.26
2024-05-09T06:00:42.784Z,20.61
2024-05-09T06:03:13.448Z,21.63
2024-05-09T06:05:46.139Z,20.82
2024-05-09T06:08:14.004Z,21.14
2024-05-09T06:10:42.127Z,21.65
2024-05-09T06:13:11.679Z,21.27
2024-05-09T06:15:41.032Z,21.56
2024-05-09T06:18:10.966Z,20.92
2024-05-09T06:20:42.808Z,21.41
2024-05-09T06:25:39.521Z,21.52
2024-05-09T06:28:07.185Z,21.96
2024-05-09T06:30:42.267Z,21.83
2024-05-09T06:33:13.645Z,21.04
2024-05-09T06:35:44.623Z,20.82
2024-05-09T06:38:12.805Z,21.25
2024-05-09T06:40:43.790Z,21.94
2024-05-09T06:43:18.098Z,23.00
2024-05-09T06:45:52.850Z,22.72
2024-05-09T06:48:21.629Z,21.78
2024-05-09T06:50:50.869Z,22.54
2024-05-09T06:53:21.863Z,23.16
2024-05-09T06:55:50.124Z,21.17
2024-05-09T06:58:17.797Z,22.72
2024-05-09T07:00:45.423Z,23.06
2024-05-09T07:03:17.180Z,23.09
2024-05-09T07:05:47.954Z,21.78
2024-05-09T07:08:17.591Z,23.70
2024-05-09T07:10:45.462Z,22.46
2024-05-09T07:13:14.391Z,22.82
2024-05-09T07:15:42.833Z,23.04
2024-05-09T07:18:17.802Z,24.30
2024-05-09T07:20:47.857Z,23.70
2024-05-09T07:23:16.363Z,24.14
2024-05-09T07:25:44.414Z,23.96
2024-05-09T07:28:16.904Z,25.18
2024-05-09T07:30:44.648Z,22.99
2024-05-09T07:33:23.871Z,23.49
2024-05-09T07:35:52.708Z,24.30
2024-05-09T07:38:20.826Z,25.35
2024-05-09T07:40:48.695Z,25.76
2024-05-09T07:43:16.620Z,25.73
2024-05-09T07:45:52.407Z,26.03
2024-05-09T07:52:38.412Z,24.39
2024-05-09T07:53:49.789Z,24.81
2024-05-09T07:56:22.709Z,24.04
2024-05-09T07:58:54.124Z,23.67
2024-05-09T08:01:22.439Z,23.13
2024-05-09T08:03:50.427Z,24.00
2024-05-09T08:06:18.296Z,24.92
2024-05-09T08:08:47.498Z,24.55
2024-05-09T08:11:15.070Z,24.30
2024-05-09T08:13:42.564Z,24.94
2024-05-09T08:16:10.359Z,25.04
2024-05-09T08:18:39.441Z,23.81
2024-05-09T08:21:07.094Z,24.33
2024-05-09T08:23:34.747Z,24.74
2024-05-09T08:26:02.305Z,24.99
2024-05-09T08:28:29.909Z,23.18
2024-05-09T08:30:57.623Z,24.92
2024-05-09T08:33:25.771Z,24.08
2024-05-09T08:35:54.548Z,25.31
2024-05-09T08:38:22.085Z,24.52
2024-05-09T08:40:50.716Z,23.93
2024-05-09T08:43:20.705Z,24.94
2024-05-09T08:45:50.261Z,24.36
2024-05-09T08:48:20.290Z,24.00
2024-05-09T08:50:50.776Z,24.87
2024-05-09T08:53:18.681Z,24.74
2024-05-09T08:55:47.372Z,25.54
2024-05-09T08:58:20.465Z,25.05
2024-05-09T09:00:49.437Z,24.66
2024-05-09T09:03:27.585Z,26.01
2024-05-09T09:05:59.636Z,25.55
2024-05-09T09:08:27.364Z,22.91
2024-05-09T09:10:59.386Z,24.59
2024-05-09T09:13:28.223Z,26.04
2024-05-09T09:15:57.894Z,26.54
2024-05-09T09:18:27.312Z,26.65
2024-05-09T09:20:55.359Z,27.45
2024-05-09T09:23:23.200Z,26.37
2024-05-09T09:25:52.121Z,27.00
2024-05-09T09:28:23.703Z,27.46
2024-05-09T09:30:51.356Z,27.80
2024-05-09T09:33:19.275Z,27.69
2024-05-09T09:35:47.304Z,28.78
2024-05-09T09:38:19.738Z,28.77
2024-05-09T09:40:49.726Z,28.76
2024-05-09T09:43:22.871Z,27.29
2024-05-09T09:45:53.026Z,28.39
2024-05-09T09:48:22.981Z,29.67
2024-05-09T09:50:53.021Z,26.10
2024-05-09T09:53:20.578Z,28.91
2024-05-09T09:55:49.023Z,28.87
2024-05-09T09:58:20.062Z,28.74
2024-05-09T10:00:47.842Z,29.15
2024-05-09T10:03:15.529Z,29.75
2024-05-09T10:05:46.442Z,29.32
2024-05-09T10:08:17.968Z,29.03
2024-05-09T10:10:48.832Z,29.41
2024-05-09T10:13:16.715Z,29.42
2024-05-09T10:15:51.726Z,29.59
2024-05-09T10:18:28.257Z,29.18
2024-05-09T10:20:59.668Z,26.22
2024-05-09T10:23:29.428Z,26.53
2024-05-09T10:25:58.129Z,27.37
2024-05-09T10:28:29.672Z,26.47
2024-05-09T10:31:16.753Z,28.04
2024-05-09T10:33:50.471Z,26.73
2024-05-09T10:36:27.017Z,28.26
2024-05-09T10:38:55.812Z,26.47
2024-05-09T10:41:24.103Z,27.76
2024-05-09T10:43:52.319Z,28.72
2024-05-09T10:46:20.380Z,25.58
2024-05-09T10:48:50.140Z,25.93
2024-05-09T10:51:21.997Z,24.25
2024-05-09T10:53:49.506Z,27.43
2024-05-09T10:56:17.325Z,25.94
2024-05-09T10:58:45.284Z,25.98
2024-05-09T11:01:14.104Z,27.76
2024-05-09T11:03:42.763Z,27.91
2024-05-09T11:06:12.093Z,29.43
2024-05-09T11:08:39.974Z,29.24
2024-05-09T11:11:08.926Z,29.53
2024-05-09T11:13:38.361Z,29.54
2024-05-09T11:16:07.678Z,26.58
2024-05-09T11:18:38.348Z,27.89
2024-05-09T11:21:13.840Z,28.46
2024-05-09T11:23:42.022Z,30.07
2024-05-09T11:26:11.125Z,30.08
2024-05-09T11:28:38.786Z,28.03
2024-05-09T11:31:08.646Z,30.51
2024-05-09T11:33:41.561Z,30.39
2024-05-09T11:36:10.070Z,31.27
2024-05-09T11:38:37.833Z,30.83
2024-05-09T11:41:06.084Z,30.78
2024-05-09T11:43:34.021Z,30.25
2024-05-09T11:46:03.535Z,30.48
2024-05-09T11:48:32.327Z,31.02
2024-05-09T11:51:00.293Z,31.52
2024-05-09T11:53:27.854Z,30.60
2024-05-09T11:55:55.471Z,30.64
2024-05-09T11:58:23.664Z,31.57
2024-05-09T12:00:51.519Z,29.75
2024-05-09T12:03:19.388Z,29.91
2024-05-09T12:05:47.166Z,31.20
2024-05-09T12:08:15.001Z,31.13
2024-05-09T12:10:42.759Z,32.05
2024-05-09T12:13:10.397Z,30.99
2024-05-09T12:15:38.824Z,32.08
2024-05-09T12:18:08.324Z,32.12
2024-05-09T12:20:39.248Z,31.38
2024-05-09T12:23:10.087Z,32.23
2024-05-09T12:25:39.897Z,31.43
2024-05-09T12:28:09.160Z,31.15
2024-05-09T12:30:41.587Z,31.34
2024-05-09T12:33:14.025Z,31.41
2024-05-09T12:35:44.345Z,29.89
2024-05-09T12:38:15.608Z,29.33
2024-05-09T12:40:43.542Z,29.14
2024-05-09T12:43:11.960Z,28.82
2024-05-09T12:45:40.760Z,28.93
2024-05-09T12:48:12.442Z,28.80
2024-05-09T12:50:41.756Z,28.90
2024-05-09T12:53:09.697Z,28.77
2024-05-09T12:55:44.908Z,28.82
2024-05-09T12:58:22.519Z,29.57
2024-05-09T13:00:52.712Z,30.23
2024-05-09T13:03:20.958Z,31.08
2024-05-09T13:05:50.100Z,30.42
2024-05-09T13:08:17.798Z,30.43
2024-05-09T13:10:45.436Z,31.44
2024-05-09T13:13:13.242Z,30.49
2024-05-09T13:15:41.180Z,31.42
2024-05-09T13:18:09.729Z,31.52
2024-05-09T13:20:37.710Z,32.06
2024-05-09T13:23:07.609Z,31.67
2024-05-09T13:25:37.397Z,31.90
2024-05-09T13:28:07.432Z,31.37
2024-05-09T13:30:40.357Z,31.86
2024-05-09T13:33:11.638Z,31.75
2024-05-09T13:35:41.864Z,30.57
2024-05-09T13:38:10.955Z,31.44
2024-05-09T13:40:38.681Z,31.17
2024-05-09T13:43:06.738Z,31.39
2024-05-09T13:45:35.626Z,31.50
2024-05-09T13:48:04.286Z,32.07
2024-05-09T13:50:35.676Z,32.14
2024-05-09T13:53:08.764Z,31.99
2024-05-09T13:55:39.024Z,31.86
2024-05-09T13:58:07.776Z,31.97
2024-05-09T14:03:06.512Z,31.72
2024-05-09T14:05:34.435Z,31.47
2024-05-09T14:08:02.124Z,30.75
2024-05-09T14:10:31.767Z,31.76
2024-05-09T14:13:01.432Z,32.54
2024-05-09T14:15:29.244Z,31.03
2024-05-09T14:17:56.977Z,31.11
2024-05-09T14:20:30.913Z,31.62
2024-05-09T14:23:01.065Z,31.77
2024-05-09T14:25:36.601Z,31.41
2024-05-09T14:28:07.036Z,30.24
2024-05-09T14:30:37.687Z,29.95
2024-05-09T14:33:08.000Z,28.62
2024-05-09T14:35:37.689Z,28.78
2024-05-09T14:38:06.776Z,29.69
2024-05-09T14:40:41.166Z,29.09
2024-05-09T14:43:13.442Z,29.08
2024-05-09T14:45:41.837Z,28.90
2024-05-09T14:48:10.128Z,28.46
2024-05-09T14:50:40.016Z,28.76
2024-05-09T14:53:10.602Z,28.28
2024-05-09T14:55:40.439Z,28.42
2024-05-09T14:58:10.854Z,29.17
2024-05-09T15:00:47.933Z,29.11
2024-05-09T15:03:21.092Z,28.80
2024-05-09T15:05:49.968Z,29.06
2024-05-09T15:08:18.927Z,29.60
2024-05-09T15:10:47.206Z,29.65
2024-05-09T15:13:16.774Z,29.82
2024-05-09T15:15:45.156Z,28.83
2024-05-09T15:18:14.120Z,29.49
2024-05-09T15:20:43.912Z,29.69
2024-05-09T15:23:11.669Z,28.40
2024-05-09T15:25:39.338Z,29.72
2024-05-09T15:28:08.298Z,29.80
2024-05-09T15:30:36.702Z,28.70
2024-05-09T15:33:05.538Z,28.34
2024-05-09T15:35:34.445Z,29.79
2024-05-09T15:38:03.333Z,30.36
2024-05-09T15:40:38.241Z,28.52
2024-05-09T15:43:10.543Z,30.24
2024-05-09T15:45:39.993Z,30.88
2024-05-09T15:48:09.900Z,30.22
2024-05-09T15:50:40.920Z,30.25
2024-05-09T15:53:11.729Z,30.15
2024-05-09T15:55:40.084Z,29.05
2024-05-09T15:58:07.997Z,29.82
2024-05-09T16:00:39.982Z,30.08
2024-05-09T16:03:11.748Z,29.63
2024-05-09T16:05:41.183Z,29.73
2024-05-09T16:08:09.412Z,29.49
2024-05-09T16:10:43.472Z,29.47
2024-05-09T16:13:12.475Z,29.24
2024-05-09T16:15:40.352Z,28.94
2024-05-09T16:18:08.400Z,29.67
2024-05-09T16:20:40.211Z,29.56
2024-05-09T16:23:10.397Z,29.59
2024-05-09T16:25:38.474Z,29.74
2024-05-09T16:28:09.956Z,29.42
2024-05-09T16:30:41.850Z,28.92
2024-05-09T16:33:11.083Z,29.00
2024-05-09T16:35:39.616Z,29.89
2024-05-09T16:38:07.455Z,29.68
2024-05-09T16:40:39.240Z,29.40
2024-05-09T16:43:10.265Z,30.07
2024-05-09T16:45:39.754Z,29.21
2024-05-09T16:48:08.465Z,29.35
2024-05-09T16:50:36.832Z,29.75
2024-05-09T16:53:06.167Z,29.85
2024-05-09T16:55:34.745Z,29.77
2024-05-09T16:58:03.553Z,29.24
2024-05-09T17:00:39.642Z,28.63
2024-05-09T17:03:15.121Z,29.42
2024-05-09T17:05:45.975Z,29.19
2024-05-09T17:08:16.471Z,28.06
2024-05-09T17:10:45.769Z,28.21
2024-05-09T17:13:13.424Z,29.15
2024-05-09T17:15:41.085Z,29.29
2024-05-09T17:18:10.105Z,29.60
2024-05-09T17:20:38.109Z,29.44
2024-05-09T17:23:13.375Z,29.34
2024-05-09T17:25:42.393Z,29.28
2024-05-09T17:28:11.226Z,29.38
2024-05-09T17:30:41.033Z,29.17
2024-05-09T17:33:11.142Z,29.23
2024-05-09T17:35:39.833Z,29.05
2024-05-09T17:38:07.686Z,29.13
2024-05-09T17:40:37.572Z,29.14
2024-05-09T17:43:08.797Z,28.89
2024-05-09T17:45:39.244Z,28.43
2024-05-09T17:48:09.527Z,28.51
2024-05-09T17:50:38.122Z,28.37
2024-05-09T17:53:07.101Z,28.43
2024-05-09T17:55:35.726Z,27.97
2024-05-09T17:58:04.898Z,28.02
2024-05-09T18:00:39.037Z,27.79
2024-05-09T18:03:13.612Z,27.62
2024-05-09T18:05:43.334Z,28.14
2024-05-09T18:08:12.027Z,28.34
2024-05-09T18:10:43.127Z,28.17
2024-05-09T18:13:12.361Z,28.27
2024-05-09T18:15:40.496Z,27.81
2024-05-09T18:18:09.297Z,27.87
2024-05-09T18:20:43.147Z,27.62
2024-05-09T18:23:16.084Z,27.76
2024-05-09T18:25:45.430Z,27.31
2024-05-09T18:28:13.185Z,27.01
2024-05-09T18:30:41.240Z,27.23
2024-05-09T18:33:11.556Z,27.33
2024-05-09T18:35:39.749Z,26.14
2024-05-09T18:38:07.400Z,27.02
2024-05-09T18:40:37.468Z,27.17
2024-05-09T18:43:08.440Z,27.14
2024-05-09T18:45:40.403Z,26.98
2024-05-09T18:48:10.021Z,26.96
2024-05-09T18:50:40.507Z,26.96
2024-05-09T18:53:11.738Z,26.98
2024-05-09T18:55:40.834Z,26.86
2024-05-09T18:58:08.539Z,26.84
2024-05-09T19:00:39.009Z,26.16
2024-05-09T19:03:11.562Z,26.22
2024-05-09T19:05:42.643Z,25.77
2024-05-09T19:08:11.277Z,25.90
2024-05-09T19:10:39.729Z,25.99
2024-05-09T19:13:11.895Z,25.94
2024-05-09T19:15:42.197Z,26.15
2024-05-09T19:18:11.781Z,26.03
2024-05-09T19:20:39.797Z,26.14
2024-05-09T19:23:07.708Z,25.97
2024-05-09T19:25:36.305Z,26.02
2024-05-09T19:28:05.589Z,26.02
2024-05-09T19:30:39.316Z,25.95
2024-05-09T19:33:11.113Z,26.05
2024-05-09T19:35:39.930Z,25.98
2024-05-09T19:38:07.912Z,25.93
2024-05-09T19:40:35.991Z,25.80
2024-05-09T19:43:05.798Z,25.85
2024-05-09T19:45:35.528Z,25.54
2024-05-09T19:48:04.884Z,25.45
2024-05-09T19:50:40.919Z,25.55
2024-05-09T19:53:12.172Z,25.32
2024-05-09T19:55:40.822Z,25.38
2024-05-09T19:58:09.932Z,25.50
2024-05-09T20:00:41.215Z,25.32
2024-05-09T20:03:15.268Z,25.40
2024-05-09T20:05:46.740Z,25.33
2024-05-09T20:08:15.032Z,25.26
2024-05-09T20:10:42.809Z,25.07
2024-05-09T20:13:10.490Z,25.09
2024-05-09T20:15:38.590Z,25.19
2024-05-09T20:18:07.256Z,25.21
2024-05-09T20:20:39.903Z,25.15
2024-05-09T20:23:11.686Z,25.09
2024-05-09T20:25:39.659Z,25.16
2024-05-09T20:28:07.796Z,24.97
2024-05-09T20:30:36.336Z,24.96
2024-05-09T20:33:07.721Z,25.01
2024-05-09T20:35:36.563Z,24.94
2024-05-09T20:38:04.971Z,24.93
2024-05-09T20:40:37.080Z,24.82
2024-05-09T20:43:08.172Z,24.76
2024-05-09T20:45:36.435Z,24.66
2024-05-09T20:48:04.310Z,24.65
2024-05-09T20:50:37.872Z,24.45
2024-05-09T20:53:13.859Z,24.47
2024-05-09T20:55:43.812Z,24.25
2024-05-09T20:58:12.246Z,24.16
2024-05-09T21:00:43.523Z,24.02
2024-05-09T21:03:15.172Z,23.86
2024-05-09T21:05:44.191Z,23.76
2024-05-09T21:08:11.854Z,23.74
2024-05-09T21:10:39.496Z,23.64
2024-05-09T21:13:07.534Z,23.57
2024-05-09T21:15:36.283Z,23.56
2024-05-09T21:18:04.991Z,23.35
2024-05-09T21:20:34.934Z,23.37
2024-05-09T21:23:03.542Z,23.28
2024-05-09T21:25:32.151Z,23.27
2024-05-09T21:28:00.591Z,23.17
2024-05-09T21:30:38.103Z,23.18
2024-05-09T21:33:11.562Z,23.19
2024-05-09T21:35:41.724Z,23.06
2024-05-09T21:38:09.394Z,22.98
2024-05-09T21:40:38.168Z,22.82
2024-05-09T21:43:08.018Z,22.60
2024-05-09T21:45:37.101Z,22.60
2024-05-09T21:48:06.184Z,22.55
2024-05-09T21:50:40.209Z,22.40
2024-05-09T21:53:11.224Z,22.26
2024-05-09T21:55:39.025Z,22.05
2024-05-09T21:58:06.642Z,22.25
2024-05-09T22:00:38.145Z,22.32
2024-05-09T22:03:08.841Z,22.30
2024-05-09T22:05:37.744Z,22.18
2024-05-09T22:08:05.816Z,21.99
2024-05-09T22:10:35.785Z,21.97
2024-05-09T22:13:06.043Z,21.06
2024-05-09T22:15:39.716Z,21.71
2024-05-09T22:18:09.728Z,21.87
2024-05-09T22:20:44.812Z,21.82
2024-05-09T22:23:14.440Z,21.79
2024-05-09T22:25:42.485Z,21.75
2024-05-09T22:28:10.206Z,21.47
2024-05-09T22:30:39.852Z,21.47
2024-05-09T22:33:10.232Z,21.23
2024-05-09T22:35:39.672Z,21.30
2024-05-09T22:38:07.399Z,21.29
2024-05-09T22:40:45.462Z,21.18
2024-05-09T22:43:24.626Z,21.20
2024-05-09T22:45:56.707Z,21.15
2024-05-09T22:48:25.735Z,20.93
2024-05-09T22:50:54.626Z,21.11
2024-05-09T22:53:26.413Z,21.08
2024-05-09T22:55:54.540Z,21.33
2024-05-09T22:58:24.133Z,21.28
2024-05-09T23:00:52.087Z,20.91
2024-05-09T23:03:21.799Z,20.98
2024-05-09T23:05:50.010Z,21.00
2024-05-09T23:08:17.602Z,20.68
2024-05-09T23:10:45.127Z,20.64
2024-05-09T23:13:12.712Z,20.26
2024-05-09T23:15:40.312Z,20.67
2024-05-09T23:18:08.583Z,20.73
2024-05-09T23:20:39.092Z,20.69
2024-05-09T23:23:11.988Z,20.56
2024-05-09T23:25:41.786Z,20.33
2024-05-09T23:28:10.591Z,20.66
2024-05-09T23:30:40.452Z,20.16
2024-05-09T23:33:13.796Z,20.19
2024-05-09T23:35:44.382Z,20.53
2024-05-09T23:38:12.988Z,20.45
2024-05-09T23:40:42.035Z,20.56
2024-05-09T23:43:12.301Z,20.65
2024-05-09T23:45:40.674Z,20.63
2024-05-09T23:48:08.728Z,20.62
2024-05-09T23:50:38.446Z,20.54
2024-05-09T23:53:08.979Z,20.41
2024-05-09T23:55:37.848Z,20.48
2024-05-09T23:58:06.236Z,20.42
